createdAt,value
2018-08-13T00:01:51.623Z,21.71
2018-08-13T00:04:19.265Z,21.67
2018-08-13T00:06:46.944Z,21.64
2018-08-13T00:09:19.128Z,21.63
2018-08-13T00:11:46.885Z,21.62
2018-08-13T00:14:14.559Z,21.60
2018-08-13T00:16:42.274Z,21.59
2018-08-13T00:19:09.925Z,21.59
2018-08-13T00:21:37.537Z,21.55
2018-08-13T00:24:05.172Z,21.53
2018-08-13T00:26:32.803Z,21.53
2018-08-13T00:29:00.454Z,21.44
2018-08-13T00:31:28.075Z,21.41
2018-08-13T00:33:55.756Z,21.38
2018-08-13T00:36:23.446Z,21.35
2018-08-13T00:38:51.087Z,21.41
2018-08-13T00:41:18.796Z,21.37
2018-08-13T00:43:46.466Z,21.30
2018-08-13T00:46:14.142Z,21.27
2018-08-13T00:48:41.879Z,21.29
2018-08-13T00:51:09.590Z,21.24
2018-08-13T00:53:37.267Z,21.21
2018-08-13T00:56:04.984Z,21.20
2018-08-13T00:58:32.656Z,21.19
2018-08-13T01:01:00.356Z,21.18
2018-08-13T01:03:28.099Z,21.15
2018-08-13T01:05:55.876Z,21.11
2018-08-13T01:08:23.520Z,21.11
2018-08-13T01:10:51.210Z,21.07
2018-08-13T01:13:19.011Z,21.07
2018-08-13T01:15:46.634Z,21.04
2018-08-13T01:18:14.403Z,20.96
2018-08-13T01:20:42.024Z,20.96
2018-08-13T01:23:09.733Z,20.96
2018-08-13T01:25:37.558Z,20.94
2018-08-13T01:28:05.170Z,20.96
2018-08-13T01:30:32.782Z,20.91
2018-08-13T01:33:00.408Z,20.88
2018-08-13T01:35:28.068Z,20.81
2018-08-13T01:37:55.689Z,20.79
2018-08-13T01:40:23.388Z,20.78
2018-08-13T01:42:51.034Z,20.74
2018-08-13T01:45:18.637Z,20.75
2018-08-13T01:47:46.308Z,20.69
2018-08-13T01:50:14.008Z,20.60
2018-08-13T01:52:41.884Z,20.59
2018-08-13T01:55:10.196Z,20.51
2018-08-13T01:57:37.973Z,20.52
2018-08-13T02:00:08.928Z,20.49
2018-08-13T02:02:36.630Z,20.50
2018-08-13T02:05:04.923Z,20.49
2018-08-13T02:07:32.588Z,20.42
2018-08-13T02:10:00.333Z,20.42
2018-08-13T02:12:27.964Z,20.42
2018-08-13T02:14:55.592Z,20.42
2018-08-13T02:17:23.304Z,20.43
2018-08-13T02:19:51.027Z,20.40
2018-08-13T02:22:18.672Z,20.42
2018-08-13T02:24:46.352Z,20.39
2018-08-13T02:27:14.015Z,20.47
2018-08-13T02:29:41.794Z,20.44
2018-08-13T02:32:09.606Z,20.49
2018-08-13T02:34:37.284Z,20.44
2018-08-13T02:37:04.972Z,20.42
2018-08-13T02:39:32.630Z,20.41
2018-08-13T02:42:00.324Z,20.38
2018-08-13T02:44:28.000Z,20.34
2018-08-13T02:46:55.727Z,20.29
2018-08-13T02:49:23.404Z,20.24
2018-08-13T02:51:51.098Z,20.24
2018-08-13T02:54:18.847Z,20.20
2018-08-13T02:56:46.532Z,20.21
2018-08-13T02:59:14.306Z,20.32
2018-08-13T03:01:42.384Z,20.43
2018-08-13T03:04:10.009Z,20.50
2018-08-13T03:06:37.764Z,20.50
2018-08-13T03:09:08.526Z,20.49
2018-08-13T03:11:36.655Z,20.42
2018-08-13T03:14:05.070Z,20.30
2018-08-13T03:16:32.829Z,20.18
2018-08-13T03:19:00.543Z,20.01
2018-08-13T03:21:28.238Z,19.96
2018-08-13T03:23:56.049Z,19.84
2018-08-13T03:26:23.771Z,19.76
2018-08-13T03:28:51.449Z,19.74
2018-08-13T03:31:19.215Z,19.71
2018-08-13T03:33:46.838Z,19.65
2018-08-13T03:36:14.508Z,19.75
2018-08-13T03:38:42.234Z,19.78
2018-08-13T03:41:09.938Z,19.73
2018-08-13T03:43:38.687Z,19.66
2018-08-13T03:46:06.401Z,19.65
2018-08-13T03:48:34.067Z,19.63
2018-08-13T03:51:01.680Z,19.57
2018-08-13T03:53:29.347Z,19.58
2018-08-13T03:55:57.101Z,19.65
2018-08-13T03:58:24.738Z,19.74
2018-08-13T04:00:52.563Z,19.78
2018-08-13T04:03:20.299Z,19.78
2018-08-13T04:05:47.951Z,19.76
2018-08-13T04:08:15.603Z,19.76
2018-08-13T04:10:43.267Z,19.81
2018-08-13T04:13:10.946Z,19.86
2018-08-13T04:15:38.692Z,19.95
2018-08-13T04:18:07.637Z,20.09
2018-08-13T04:20:35.453Z,20.19
2018-08-13T04:23:03.128Z,20.21
2018-08-13T04:25:30.776Z,20.28
2018-08-13T04:27:58.469Z,20.31
2018-08-13T04:30:26.158Z,20.32
2018-08-13T04:32:53.837Z,20.41
2018-08-13T04:35:21.557Z,20.46
2018-08-13T04:37:49.305Z,20.48
2018-08-13T04:40:17.851Z,20.43
2018-08-13T04:42:46.498Z,20.50
2018-08-13T04:45:14.254Z,20.50
2018-08-13T04:47:50.344Z,20.52
2018-08-13T04:50:18.131Z,20.56
2018-08-13T04:52:45.935Z,20.60
2018-08-13T04:55:13.682Z,20.68
2018-08-13T04:57:41.432Z,20.73
2018-08-13T05:00:09.607Z,20.78
2018-08-13T05:02:37.623Z,20.81
2018-08-13T05:05:06.455Z,20.87
2018-08-13T05:07:34.107Z,20.92
2018-08-13T05:10:01.814Z,20.95
2018-08-13T05:12:29.497Z,21.01
2018-08-13T05:14:57.180Z,21.10
2018-08-13T05:17:24.854Z,21.18
2018-08-13T05:19:52.541Z,21.31
2018-08-13T05:22:20.247Z,21.45
2018-08-13T05:24:47.886Z,21.61
2018-08-13T05:27:15.611Z,21.75
2018-08-13T05:29:43.294Z,21.85
2018-08-13T05:32:10.920Z,22.04
2018-08-13T05:34:38.604Z,22.16
2018-08-13T05:37:06.237Z,22.25
2018-08-13T05:39:33.945Z,22.27
2018-08-13T05:42:01.671Z,22.34
2018-08-13T05:44:29.298Z,22.53
2018-08-13T05:46:56.895Z,22.62
2018-08-13T05:49:24.685Z,22.72
2018-08-13T05:51:52.460Z,22.82
2018-08-13T05:54:20.180Z,23.02
2018-08-13T05:56:47.858Z,23.12
2018-08-13T05:59:15.572Z,23.27
2018-08-13T06:01:43.252Z,23.51
2018-08-13T06:04:10.912Z,23.70
2018-08-13T06:06:38.564Z,23.83
2018-08-13T06:09:09.678Z,24.05
2018-08-13T06:11:37.359Z,24.29
2018-08-13T06:14:05.040Z,24.45
2018-08-13T06:16:32.776Z,24.56
2018-08-13T06:19:00.501Z,24.76
2018-08-13T06:21:28.198Z,24.86
2018-08-13T06:23:55.872Z,24.98
2018-08-13T06:26:23.583Z,25.07
2018-08-13T06:28:51.221Z,25.16
2018-08-13T06:31:18.894Z,25.34
2018-08-13T06:33:46.592Z,25.54
2018-08-13T06:36:14.224Z,25.72
2018-08-13T06:38:41.874Z,25.94
2018-08-13T06:41:09.607Z,26.07
2018-08-13T06:43:37.311Z,26.15
2018-08-13T06:46:05.092Z,26.23
2018-08-13T06:48:32.816Z,26.38
2018-08-13T06:51:00.515Z,26.48
2018-08-13T06:53:28.158Z,26.49
2018-08-13T06:55:55.811Z,26.70
2018-08-13T06:58:23.454Z,26.73
2018-08-13T07:00:51.215Z,26.87
2018-08-13T07:03:18.956Z,27.02
2018-08-13T07:05:46.673Z,27.19
2018-08-13T07:08:14.447Z,27.49
2018-08-13T07:10:42.166Z,27.72
2018-08-13T07:13:09.858Z,27.81
2018-08-13T07:15:37.603Z,28.07
2018-08-13T07:18:05.559Z,28.29
2018-08-13T07:20:33.278Z,28.58
2018-08-13T07:23:00.913Z,28.60
2018-08-13T07:25:28.619Z,28.73
2018-08-13T07:27:56.260Z,29.10
2018-08-13T07:30:23.988Z,29.26
2018-08-13T07:32:51.697Z,29.17
2018-08-13T07:35:19.411Z,29.16
2018-08-13T07:37:47.289Z,29.20
2018-08-13T07:40:16.113Z,29.21
2018-08-13T07:42:44.167Z,29.46
2018-08-13T07:45:11.882Z,29.64
2018-08-13T07:47:39.658Z,29.74
2018-08-13T07:50:08.975Z,30.11
2018-08-13T07:52:36.842Z,30.48
2018-08-13T07:55:04.915Z,30.79
2018-08-13T07:57:32.589Z,31.04
2018-08-13T08:00:00.346Z,31.35
2018-08-13T08:02:28.156Z,31.59
2018-08-13T08:04:55.832Z,31.65
2018-08-13T08:07:23.460Z,31.79
2018-08-13T08:09:51.183Z,32.07
2018-08-13T08:12:18.892Z,32.18
2018-08-13T08:14:46.677Z,32.10
2018-08-13T08:17:14.412Z,32.37
2018-08-13T08:19:42.166Z,32.49
2018-08-13T08:22:09.844Z,32.95
2018-08-13T08:24:37.475Z,33.26
2018-08-13T08:27:06.199Z,33.62
2018-08-13T08:29:33.886Z,34.29
2018-08-13T08:32:01.681Z,34.88
2018-08-13T08:34:29.312Z,34.85
2018-08-13T08:36:57.122Z,35.44
2018-08-13T08:39:24.859Z,35.92
2018-08-13T08:41:52.611Z,36.16
2018-08-13T08:44:20.389Z,36.45
2018-08-13T08:46:48.798Z,36.77
2018-08-13T08:49:16.496Z,36.66
2018-08-13T08:51:44.230Z,37.15
2018-08-13T08:54:11.944Z,37.57
2018-08-13T08:56:39.655Z,37.85
2018-08-13T08:59:08.815Z,38.25
2018-08-13T09:01:36.601Z,37.81
2018-08-13T09:04:04.540Z,38.36
2018-08-13T09:06:32.273Z,38.69
2018-08-13T09:08:59.943Z,38.99
2018-08-13T09:11:27.658Z,38.82
2018-08-13T09:13:55.312Z,38.52
2018-08-13T09:16:23.102Z,38.62
2018-08-13T09:19:02.149Z,38.98
2018-08-13T09:21:34.587Z,38.65
2018-08-13T09:24:14.103Z,38.67
2018-08-13T09:26:52.982Z,38.65
2018-08-13T09:29:32.526Z,38.94
2018-08-13T09:32:30.639Z,38.96
2018-08-13T09:35:36.696Z,39.18
2018-08-13T09:38:04.508Z,38.83
2018-08-13T09:40:33.023Z,38.99
2018-08-13T09:43:00.732Z,39.09
2018-08-13T09:45:28.412Z,38.35
2018-08-13T09:47:56.070Z,38.40
2018-08-13T09:50:23.882Z,38.33
2018-08-13T09:52:51.820Z,38.79
2018-08-13T09:55:20.013Z,38.54
2018-08-13T09:57:48.319Z,37.79
2018-08-13T10:00:24.028Z,38.04
2018-08-13T10:02:51.725Z,38.20
2018-08-13T10:05:19.472Z,39.08
2018-08-13T10:07:47.477Z,39.38
2018-08-13T10:10:15.879Z,39.37
2018-08-13T10:12:44.225Z,39.28
2018-08-13T10:15:12.604Z,38.47
2018-08-13T10:17:40.463Z,39.09
2018-08-13T10:20:12.348Z,38.97
2018-08-13T10:22:40.057Z,38.77
2018-08-13T10:25:08.395Z,39.02
2018-08-13T10:27:36.149Z,39.30
2018-08-13T10:30:05.359Z,39.89
2018-08-13T10:32:33.020Z,40.13
2018-08-13T10:35:00.765Z,39.96
2018-08-13T10:37:28.504Z,39.48
2018-08-13T10:39:56.164Z,39.83
2018-08-13T10:42:23.870Z,40.19
2018-08-13T10:44:51.512Z,39.81
2018-08-13T10:47:19.275Z,40.15
2018-08-13T10:49:46.951Z,39.48
2018-08-13T10:52:14.660Z,37.78
2018-08-13T10:54:42.438Z,38.63
2018-08-13T10:57:10.119Z,38.47
2018-08-13T10:59:37.810Z,37.62
2018-08-13T11:02:05.478Z,37.81
2018-08-13T11:04:33.140Z,38.50
2018-08-13T11:07:00.840Z,37.15
2018-08-13T11:09:28.598Z,36.09
2018-08-13T11:11:56.308Z,36.00
2018-08-13T11:14:23.935Z,37.44
2018-08-13T11:16:51.727Z,38.77
2018-08-13T11:19:19.398Z,39.97
2018-08-13T11:21:47.149Z,40.74
2018-08-13T11:24:14.760Z,39.74
2018-08-13T11:26:42.442Z,39.91
2018-08-13T11:29:10.091Z,41.13
2018-08-13T11:31:37.756Z,40.80
2018-08-13T11:34:05.498Z,41.47
2018-08-13T11:36:33.197Z,41.76
2018-08-13T11:39:00.877Z,42.18
2018-08-13T11:41:28.598Z,42.49
2018-08-13T11:43:56.240Z,42.86
2018-08-13T11:46:23.934Z,41.82
2018-08-13T11:48:51.565Z,41.40
2018-08-13T11:51:19.200Z,41.70
2018-08-13T11:53:46.823Z,41.19
2018-08-13T11:56:14.524Z,41.51
2018-08-13T11:58:42.188Z,42.52
2018-08-13T12:01:09.967Z,42.41
2018-08-13T12:03:37.573Z,42.62
2018-08-13T12:06:05.328Z,42.34
2018-08-13T12:08:33.082Z,43.07
2018-08-13T12:11:00.740Z,44.21
2018-08-13T12:13:28.400Z,43.83
2018-08-13T12:15:56.091Z,42.34
2018-08-13T12:18:23.862Z,42.33
2018-08-13T12:20:51.499Z,42.72
2018-08-13T12:23:19.113Z,42.42
2018-08-13T12:25:46.875Z,40.54
2018-08-13T12:28:14.682Z,38.68
2018-08-13T12:30:42.312Z,38.89
2018-08-13T12:33:10.013Z,37.69
2018-08-13T12:35:37.723Z,38.32
2018-08-13T12:38:05.421Z,37.59
2018-08-13T12:40:33.262Z,36.63
2018-08-13T12:43:01.008Z,36.20
2018-08-13T12:45:28.648Z,35.90
2018-08-13T12:47:56.356Z,35.82
2018-08-13T12:50:24.057Z,36.01
2018-08-13T12:52:52.347Z,35.73
2018-08-13T12:55:20.197Z,35.44
2018-08-13T12:57:47.888Z,35.26
2018-08-13T13:00:17.173Z,35.33
2018-08-13T13:02:44.916Z,35.28
2018-08-13T13:05:13.814Z,34.93
2018-08-13T13:07:41.511Z,35.67
2018-08-13T13:10:12.208Z,36.85
2018-08-13T13:12:40.572Z,36.17
2018-08-13T13:15:09.868Z,37.16
2018-08-13T13:17:38.484Z,38.79
2018-08-13T13:20:07.977Z,39.53
2018-08-13T13:22:35.774Z,40.27
2018-08-13T13:25:03.588Z,39.03
2018-08-13T13:27:31.671Z,37.75
2018-08-13T13:29:59.339Z,37.02
2018-08-13T13:32:27.030Z,36.15
2018-08-13T13:34:54.695Z,36.08
2018-08-13T13:37:22.368Z,37.91
2018-08-13T13:39:50.090Z,37.72
2018-08-13T13:42:17.743Z,38.79
2018-08-13T13:44:45.423Z,38.20
2018-08-13T13:47:13.100Z,38.75
2018-08-13T13:49:40.838Z,38.35
2018-08-13T13:52:08.495Z,38.73
2018-08-13T13:54:36.148Z,38.86
2018-08-13T13:57:03.883Z,37.95
2018-08-13T13:59:31.516Z,38.55
2018-08-13T14:01:59.301Z,39.41
2018-08-13T14:04:26.960Z,39.90
2018-08-13T14:06:54.586Z,40.15
2018-08-13T14:09:22.280Z,40.48
2018-08-13T14:11:49.959Z,40.83
2018-08-13T14:14:17.674Z,40.07
2018-08-13T14:16:45.484Z,39.41
2018-08-13T14:19:13.131Z,39.27
2018-08-13T14:21:40.808Z,40.18
2018-08-13T14:24:08.598Z,40.29
2018-08-13T14:26:36.335Z,40.31
2018-08-13T14:29:04.023Z,40.70
2018-08-13T14:31:31.766Z,40.36
2018-08-13T14:33:59.515Z,40.26
2018-08-13T14:36:27.195Z,40.15
2018-08-13T14:38:54.876Z,39.05
2018-08-13T14:41:22.513Z,36.37
2018-08-13T14:43:50.256Z,36.29
2018-08-13T14:46:17.942Z,36.40
2018-08-13T14:48:45.640Z,36.85
2018-08-13T14:51:13.420Z,36.65
2018-08-13T14:53:41.065Z,36.29
2018-08-13T14:56:08.724Z,35.90
2018-08-13T14:58:36.492Z,35.04
2018-08-13T15:01:04.416Z,34.06
2018-08-13T15:03:32.180Z,33.27
2018-08-13T15:05:59.829Z,32.52
2018-08-13T15:08:27.567Z,32.14
2018-08-13T15:10:55.205Z,31.94
2018-08-13T15:13:23.055Z,31.85
2018-08-13T15:15:50.824Z,31.65
2018-08-13T15:18:21.893Z,31.39
2018-08-13T15:20:49.693Z,31.18
2018-08-13T15:23:17.500Z,30.96
2018-08-13T15:25:45.409Z,30.82
2018-08-13T15:28:13.208Z,30.66
2018-08-13T15:30:40.799Z,30.78
2018-08-13T15:33:08.553Z,30.86
2018-08-13T15:35:36.293Z,30.82
2018-08-13T15:38:04.047Z,30.84
2018-08-13T15:40:31.748Z,30.86
2018-08-13T15:42:59.524Z,30.58
2018-08-13T15:45:27.200Z,30.47
2018-08-13T15:47:55.103Z,30.47
2018-08-13T15:50:23.560Z,30.47
2018-08-13T15:52:52.187Z,30.34
2018-08-13T15:55:20.207Z,30.02
2018-08-13T15:57:48.203Z,30.04
2018-08-13T16:00:18.237Z,29.94
2018-08-13T16:02:46.159Z,29.97
2018-08-13T16:05:13.836Z,30.08
2018-08-13T16:07:41.623Z,30.13
2018-08-13T16:10:11.666Z,29.74
2018-08-13T16:12:39.494Z,29.47
2018-08-13T16:15:07.650Z,29.31
2018-08-13T16:17:35.820Z,29.31
2018-08-13T16:20:04.852Z,29.15
2018-08-13T16:22:32.583Z,29.04
2018-08-13T16:25:00.216Z,29.01
2018-08-13T16:27:27.872Z,28.88
2018-08-13T16:29:55.637Z,28.91
2018-08-13T16:32:23.319Z,28.92
2018-08-13T16:34:50.964Z,28.75
2018-08-13T16:37:18.649Z,28.59
2018-08-13T16:39:46.324Z,28.32
2018-08-13T16:42:14.019Z,28.25
2018-08-13T16:44:41.735Z,28.28
2018-08-13T16:47:11.002Z,28.25
2018-08-13T16:49:38.632Z,28.21
2018-08-13T16:52:06.816Z,28.27
2018-08-13T16:54:34.518Z,28.32
2018-08-13T16:57:02.265Z,28.25
2018-08-13T16:59:29.982Z,28.16
2018-08-13T17:01:57.639Z,27.92
2018-08-13T17:04:25.313Z,27.99
2018-08-13T17:06:52.988Z,27.98
2018-08-13T17:09:20.691Z,27.97
2018-08-13T17:11:48.387Z,27.98
2018-08-13T17:14:16.307Z,27.97
2018-08-13T17:16:45.427Z,27.90
2018-08-13T17:19:13.088Z,27.65
2018-08-13T17:21:40.955Z,27.45
2018-08-13T17:24:10.982Z,27.43
2018-08-13T17:26:38.739Z,27.37
2018-08-13T17:29:06.876Z,27.48
2018-08-13T17:31:34.903Z,27.47
2018-08-13T17:34:02.662Z,27.55
2018-08-13T17:36:30.448Z,27.36
2018-08-13T17:38:58.172Z,27.21
2018-08-13T17:41:25.914Z,27.14
2018-08-13T17:43:53.644Z,26.80
2018-08-13T17:46:21.293Z,26.77
2018-08-13T17:48:48.945Z,26.73
2018-08-13T17:51:16.919Z,26.45
2018-08-13T17:53:44.617Z,26.39
2018-08-13T17:56:12.396Z,26.45
2018-08-13T17:58:40.202Z,26.52
2018-08-13T18:01:08.532Z,26.50
2018-08-13T18:03:36.279Z,26.75
2018-08-13T18:06:04.338Z,26.90
2018-08-13T18:08:32.120Z,26.57
2018-08-13T18:10:59.958Z,26.14
2018-08-13T18:13:27.909Z,25.80
2018-08-13T18:15:55.698Z,25.80
2018-08-13T18:18:23.432Z,25.86
2018-08-13T18:20:51.138Z,25.56
2018-08-13T18:23:18.924Z,25.50
2018-08-13T18:25:46.806Z,25.40
2018-08-13T18:28:14.502Z,25.27
2018-08-13T18:30:42.247Z,25.08
2018-08-13T18:33:09.963Z,24.83
2018-08-13T18:35:37.711Z,24.62
2018-08-13T18:38:05.394Z,24.51
2018-08-13T18:40:34.011Z,24.46
2018-08-13T18:43:01.710Z,24.27
2018-08-13T18:45:30.189Z,24.28
2018-08-13T18:47:58.743Z,24.29
2018-08-13T18:50:27.029Z,24.29
2018-08-13T18:52:55.045Z,24.54
2018-08-13T18:55:24.138Z,24.58
2018-08-13T18:57:52.248Z,24.63
2018-08-13T19:00:22.841Z,24.78
2018-08-13T19:02:50.614Z,24.71
2018-08-13T19:05:19.085Z,24.74
2018-08-13T19:07:47.327Z,24.62
2018-08-13T19:10:15.926Z,24.77
2018-08-13T19:12:43.676Z,24.89
2018-08-13T19:15:15.994Z,24.82
2018-08-13T19:17:43.742Z,24.73
2018-08-13T19:20:12.399Z,24.70
2018-08-13T19:22:40.240Z,24.59
2018-08-13T19:25:10.342Z,24.35
2018-08-13T19:27:38.190Z,24.17
2018-08-13T19:30:06.588Z,24.08
2018-08-13T19:32:34.410Z,24.01
2018-08-13T19:35:02.156Z,23.97
2018-08-13T19:37:29.868Z,24.01
2018-08-13T19:39:57.638Z,23.94
2018-08-13T19:42:25.458Z,24.12
2018-08-13T19:44:53.126Z,24.27
2018-08-13T19:47:21.008Z,24.32
2018-08-13T19:49:49.236Z,24.18
2018-08-13T19:52:17.441Z,24.24
2018-08-13T19:54:45.492Z,24.26
2018-08-13T19:57:13.454Z,24.25
2018-08-13T19:59:41.139Z,24.26
2018-08-13T20:02:08.852Z,24.18
2018-08-13T20:04:36.531Z,24.02
2018-08-13T20:07:04.216Z,24.14
2018-08-13T20:09:31.876Z,23.93
2018-08-13T20:11:59.632Z,23.83
2018-08-13T20:14:27.329Z,23.72
2018-08-13T20:16:55.297Z,23.61
2018-08-13T20:19:23.509Z,23.52
2018-08-13T20:21:51.148Z,23.46
2018-08-13T20:24:18.927Z,23.46
2018-08-13T20:26:46.555Z,23.38
2018-08-13T20:29:15.293Z,23.39
2018-08-13T20:31:43.214Z,23.44
2018-08-13T20:34:11.115Z,23.39
2018-08-13T20:36:39.443Z,23.33
2018-08-13T20:39:11.127Z,23.46
2018-08-13T20:41:39.464Z,23.49
2018-08-13T20:44:07.436Z,23.49
2018-08-13T20:46:35.243Z,23.54
2018-08-13T20:49:03.048Z,23.36
2018-08-13T20:51:30.734Z,23.26
2018-08-13T20:53:58.540Z,23.27
2018-08-13T20:56:26.274Z,23.24
2018-08-13T20:58:53.968Z,23.26
2018-08-13T21:01:21.719Z,23.18
2018-08-13T21:03:50.065Z,23.16
2018-08-13T21:06:17.915Z,23.13
2018-08-13T21:08:45.720Z,23.19
2018-08-13T21:11:13.763Z,23.26
2018-08-13T21:13:41.429Z,23.27
2018-08-13T21:16:09.315Z,23.19
2018-08-13T21:18:36.974Z,23.34
2018-08-13T21:21:04.716Z,23.46
2018-08-13T21:23:32.388Z,23.44
2018-08-13T21:26:00.199Z,23.38
2018-08-13T21:28:27.843Z,23.45
2018-08-13T21:30:55.588Z,23.52
2018-08-13T21:33:23.242Z,23.45
2018-08-13T21:35:51.015Z,23.41
2018-08-13T21:38:18.737Z,23.39
2018-08-13T21:40:46.492Z,23.40
2018-08-13T21:43:14.372Z,23.30
2018-08-13T21:45:42.060Z,23.42
2018-08-13T21:48:09.805Z,23.32
2018-08-13T21:50:37.493Z,23.20
2018-08-13T21:53:05.390Z,23.23
2018-08-13T21:55:33.101Z,23.29
2018-08-13T21:58:00.772Z,23.30
2018-08-13T22:00:30.595Z,23.20
2018-08-13T22:03:00.360Z,23.20
2018-08-13T22:05:28.133Z,23.08
2018-08-13T22:07:57.088Z,23.20
2018-08-13T22:10:24.828Z,23.14
2018-08-13T22:12:52.671Z,23.22
2018-08-13T22:15:25.718Z,23.19
2018-08-13T22:17:54.497Z,23.13
2018-08-13T22:20:22.459Z,23.15
2018-08-13T22:22:50.218Z,23.23
2018-08-13T22:25:20.878Z,23.24
2018-08-13T22:27:48.644Z,23.20
2018-08-13T22:30:16.432Z,23.32
2018-08-13T22:32:44.201Z,23.20
2018-08-13T22:35:11.988Z,23.11
2018-08-13T22:37:40.647Z,23.04
2018-08-13T22:40:15.848Z,23.02
2018-08-13T22:42:44.272Z,23.11
2018-08-13T22:45:12.081Z,23.09
2018-08-13T22:47:40.722Z,23.09
2018-08-13T22:50:09.654Z,22.97
2018-08-13T22:52:37.432Z,22.89
2018-08-13T22:55:06.877Z,22.92
2018-08-13T22:57:34.706Z,22.84
2018-08-13T23:00:02.686Z,22.75
2018-08-13T23:02:30.328Z,22.76
2018-08-13T23:04:58.157Z,22.80
2018-08-13T23:07:25.882Z,22.64
2018-08-13T23:09:53.609Z,22.61
2018-08-13T23:12:21.371Z,22.65
2018-08-13T23:14:49.090Z,22.56
2018-08-13T23:17:16.799Z,22.59
2018-08-13T23:19:47.526Z,22.57
2018-08-13T23:22:52.635Z,22.55
2018-08-13T23:25:20.680Z,22.61
2018-08-13T23:27:49.677Z,22.58
2018-08-13T23:30:17.580Z,22.63
2018-08-13T23:32:46.743Z,22.71
2018-08-13T23:35:14.928Z,22.77
2018-08-13T23:37:42.955Z,22.80
2018-08-13T23:40:10.791Z,22.73
2018-08-13T23:42:38.552Z,22.61
2018-08-13T23:45:08.124Z,22.62
2018-08-13T23:47:35.902Z,22.77
2018-08-13T23:50:04.427Z,22.89
2018-08-13T23:52:32.185Z,22.97
2018-08-13T23:55:00.017Z,22.98
2018-08-13T23:57:27.692Z,22.95
2018-08-13T23:59:55.479Z,22.94
